sensor_id;sensor_type;location;lat;lon;timestamp;temperature;humidity
3037;DHT22;1528;52.550;13.408;2023-04-25T00:02:34;10.10;26.60
3037;DHT22;1528;52.550;13.408;2023-04-25T00:05:21;10.10;26.80
3037;DHT22;1528;52.550;13.408;2023-04-25T00:08:07;10.20;26.30
3037;DHT22;1528;52.550;13.408;2023-04-25T00:10:53;10.20;26.10
3037;DHT22;1528;52.550;13.408;2023-04-25T00:13:39;10.20;25.80
3037;DHT22;1528;52.550;13.408;2023-04-25T00:16:25;10.20;25.70
3037;DHT22;1528;52.550;13.408;2023-04-25T00:19:11;10.10;25.70
3037;DHT22;1528;52.550;13.408;2023-04-25T00:21:58;10.20;25.40
3037;DHT22;1528;52.550;13.408;2023-04-25T00:24:44;10.20;25.10
3037;DHT22;1528;52.550;13.408;2023-04-25T00:27:29;10.10;25.30
3037;DHT22;1528;52.550;13.408;2023-04-25T00:30:15;10.20;25.00
3037;DHT22;1528;52.550;13.408;2023-04-25T00:33:01;10.20;24.80
3037;DHT22;1528;52.550;13.408;2023-04-25T00:35:46;10.20;25.00
3037;DHT22;1528;52.550;13.408;2023-04-25T00:38:33;10.00;25.00
3037;DHT22;1528;52.550;13.408;2023-04-25T00:41:19;10.00;25.90
3037;DHT22;1528;52.550;13.408;2023-04-25T00:44:05;10.10;24.90
3037;DHT22;1528;52.550;13.408;2023-04-25T00:46:53;9.90;25.90
3037;DHT22;1528;52.550;13.408;2023-04-25T00:49:39;10.00;25.30
3037;DHT22;1528;52.550;13.408;2023-04-25T00:52:25;9.90;25.80
3037;DHT22;1528;52.550;13.408;2023-04-25T00:55:12;10.00;25.20
3037;DHT22;1528;52.550;13.408;2023-04-25T00:57:58;10.10;24.90
3037;DHT22;1528;52.550;13.408;2023-04-25T01:00:44;10.10;24.90
3037;DHT22;1528;52.550;13.408;2023-04-25T01:03:33;9.90;25.80
3037;DHT22;1528;52.550;13.408;2023-04-25T01:06:19;9.80;26.20
3037;DHT22;1528;52.550;13.408;2023-04-25T01:09:07;10.00;25.60
3037;DHT22;1528;52.550;13.408;2023-04-25T01:11:54;9.90;26.10
3037;DHT22;1528;52.550;13.408;2023-04-25T01:14:41;9.90;26.00
3037;DHT22;1528;52.550;13.408;2023-04-25T01:17:28;9.80;26.10
3037;DHT22;1528;52.550;13.408;2023-04-25T01:20:14;9.80;26.00
3037;DHT22;1528;52.550;13.408;2023-04-25T01:23:02;9.80;26.20
3037;DHT22;1528;52.550;13.408;2023-04-25T01:25:48;9.80;26.40
3037;DHT22;1528;52.550;13.408;2023-04-25T01:28:34;9.90;26.40
3037;DHT22;1528;52.550;13.408;2023-04-25T01:31:20;9.90;25.90
3037;DHT22;1528;52.550;13.408;2023-04-25T01:34:06;9.90;26.10
3037;DHT22;1528;52.550;13.408;2023-04-25T01:36:51;9.90;26.00
3037;DHT22;1528;52.550;13.408;2023-04-25T01:39:39;9.90;26.10
3037;DHT22;1528;52.550;13.408;2023-04-25T01:42:25;10.10;25.30
3037;DHT22;1528;52.550;13.408;2023-04-25T01:45:11;10.00;25.10
3037;DHT22;1528;52.550;13.408;2023-04-25T01:47:57;10.00;25.10
3037;DHT22;1528;52.550;13.408;2023-04-25T01:50:44;9.90;26.00
3037;DHT22;1528;52.550;13.408;2023-04-25T01:53:30;10.00;25.20
3037;DHT22;1528;52.550;13.408;2023-04-25T01:56:17;10.00;25.00
3037;DHT22;1528;52.550;13.408;2023-04-25T01:59:03;10.10;25.00
3037;DHT22;1528;52.550;13.408;2023-04-25T02:01:49;10.00;25.10
3037;DHT22;1528;52.550;13.408;2023-04-25T02:04:35;10.00;25.20
3037;DHT22;1528;52.550;13.408;2023-04-25T02:07:20;10.10;25.60
3037;DHT22;1528;52.550;13.408;2023-04-25T02:10:06;10.10;24.70
3037;DHT22;1528;52.550;13.408;2023-04-25T02:12:53;10.10;24.90
3037;DHT22;1528;52.550;13.408;2023-04-25T02:15:39;9.90;25.90
3037;DHT22;1528;52.550;13.408;2023-04-25T02:18:25;10.00;25.30
3037;DHT22;1528;52.550;13.408;2023-04-25T02:21:11;10.10;25.10
3037;DHT22;1528;52.550;13.408;2023-04-25T02:23:57;10.10;25.00
3037;DHT22;1528;52.550;13.408;2023-04-25T02:26:43;9.80;26.00
3037;DHT22;1528;52.550;13.408;2023-04-25T02:29:30;9.90;26.10
3037;DHT22;1528;52.550;13.408;2023-04-25T02:32:15;9.80;25.90
3037;DHT22;1528;52.550;13.408;2023-04-25T02:35:01;10.10;25.70
3037;DHT22;1528;52.550;13.408;2023-04-25T02:37:47;10.00;25.40
3037;DHT22;1528;52.550;13.408;2023-04-25T02:40:33;9.90;26.20
3037;DHT22;1528;52.550;13.408;2023-04-25T02:43:18;10.00;25.40
3037;DHT22;1528;52.550;13.408;2023-04-25T02:46:06;9.90;26.30
3037;DHT22;1528;52.550;13.408;2023-04-25T02:48:52;10.00;25.40
3037;DHT22;1528;52.550;13.408;2023-04-25T02:51:37;10.00;25.40
3037;DHT22;1528;52.550;13.408;2023-04-25T02:54:23;10.00;25.40
3037;DHT22;1528;52.550;13.408;2023-04-25T02:57:09;9.90;26.20
3037;DHT22;1528;52.550;13.408;2023-04-25T02:59:54;9.80;26.40
3037;DHT22;1528;52.550;13.408;2023-04-25T03:02:41;9.90;26.40
3037;DHT22;1528;52.550;13.408;2023-04-25T03:05:27;10.00;25.40
3037;DHT22;1528;52.550;13.408;2023-04-25T03:08:12;9.80;26.40
3037;DHT22;1528;52.550;13.408;2023-04-25T03:10:58;9.80;26.50
3037;DHT22;1528;52.550;13.408;2023-04-25T03:13:43;10.10;25.80
3037;DHT22;1528;52.550;13.408;2023-04-25T03:16:29;9.90;26.40
3037;DHT22;1528;52.550;13.408;2023-04-25T03:19:16;9.70;26.50
3037;DHT22;1528;52.550;13.408;2023-04-25T03:22:02;9.80;26.30
3037;DHT22;1528;52.550;13.408;2023-04-25T03:24:49;9.80;26.20
3037;DHT22;1528;52.550;13.408;2023-04-25T03:27:35;9.90;26.70
3037;DHT22;1528;52.550;13.408;2023-04-25T03:30:21;9.80;26.40
3037;DHT22;1528;52.550;13.408;2023-04-25T03:33:06;9.90;26.30
3037;DHT22;1528;52.550;13.408;2023-04-25T03:35:53;9.80;26.60
3037;DHT22;1528;52.550;13.408;2023-04-25T03:38:39;9.70;26.80
3037;DHT22;1528;52.550;13.408;2023-04-25T03:41:25;9.80;26.60
3037;DHT22;1528;52.550;13.408;2023-04-25T03:44:10;9.80;26.60
3037;DHT22;1528;52.550;13.408;2023-04-25T03:46:56;9.80;26.70
3037;DHT22;1528;52.550;13.408;2023-04-25T03:49:42;9.90;26.60
3037;DHT22;1528;52.550;13.408;2023-04-25T03:52:30;9.80;26.80
3037;DHT22;1528;52.550;13.408;2023-04-25T03:55:15;9.80;26.80
3037;DHT22;1528;52.550;13.408;2023-04-25T03:58:01;9.70;27.00
3037;DHT22;1528;52.550;13.408;2023-04-25T04:00:46;9.70;26.90
3037;DHT22;1528;52.550;13.408;2023-04-25T04:03:32;9.60;27.20
3037;DHT22;1528;52.550;13.408;2023-04-25T04:06:18;9.70;26.90
3037;DHT22;1528;52.550;13.408;2023-04-25T04:09:06;9.80;26.90
3037;DHT22;1528;52.550;13.408;2023-04-25T04:11:54;9.90;26.80
3037;DHT22;1528;52.550;13.408;2023-04-25T04:14:40;9.90;26.80
3037;DHT22;1528;52.550;13.408;2023-04-25T04:17:26;9.70;26.80
3037;DHT22;1528;52.550;13.408;2023-04-25T04:20:11;9.80;26.80
3037;DHT22;1528;52.550;13.408;2023-04-25T04:22:57;9.70;26.80
3037;DHT22;1528;52.550;13.408;2023-04-25T04:25:44;9.60;27.10
3037;DHT22;1528;52.550;13.408;2023-04-25T04:28:29;9.70;27.00
3037;DHT22;1528;52.550;13.408;2023-04-25T04:31:15;9.90;26.70
3037;DHT22;1528;52.550;13.408;2023-04-25T04:34:02;9.80;26.90
3037;DHT22;1528;52.550;13.408;2023-04-25T04:36:48;10.00;25.70
3037;DHT22;1528;52.550;13.408;2023-04-25T04:39:34;9.90;26.40
3037;DHT22;1528;52.550;13.408;2023-04-25T04:42:21;9.80;26.60
3037;DHT22;1528;52.550;13.408;2023-04-25T04:45:08;9.80;26.80
3037;DHT22;1528;52.550;13.408;2023-04-25T04:47:54;9.80;26.70
3037;DHT22;1528;52.550;13.408;2023-04-25T04:50:42;10.00;25.70
3037;DHT22;1528;52.550;13.408;2023-04-25T04:53:29;9.90;26.30
3037;DHT22;1528;52.550;13.408;2023-04-25T04:56:15;9.80;26.80
3037;DHT22;1528;52.550;13.408;2023-04-25T04:59:02;9.90;27.20
3037;DHT22;1528;52.550;13.408;2023-04-25T05:01:47;10.00;25.90
3037;DHT22;1528;52.550;13.408;2023-04-25T05:04:33;10.00;25.70
3037;DHT22;1528;52.550;13.408;2023-04-25T05:07:19;10.10;25.70
3037;DHT22;1528;52.550;13.408;2023-04-25T05:10:07;10.20;25.50
3037;DHT22;1528;52.550;13.408;2023-04-25T05:12:53;10.20;25.50
3037;DHT22;1528;52.550;13.408;2023-04-25T05:15:40;10.20;25.30
3037;DHT22;1528;52.550;13.408;2023-04-25T05:18:25;10.20;25.30
3037;DHT22;1528;52.550;13.408;2023-04-25T05:21:11;10.00;25.80
3037;DHT22;1528;52.550;13.408;2023-04-25T05:23:57;10.10;25.70
3037;DHT22;1528;52.550;13.408;2023-04-25T05:26:42;10.20;25.90
3037;DHT22;1528;52.550;13.408;2023-04-25T05:29:28;10.30;25.60
3037;DHT22;1528;52.550;13.408;2023-04-25T05:32:15;10.30;25.50
3037;DHT22;1528;52.550;13.408;2023-04-25T05:35:00;10.20;25.90
3037;DHT22;1528;52.550;13.408;2023-04-25T05:37:46;10.20;25.80
3037;DHT22;1528;52.550;13.408;2023-04-25T05:40:32;10.00;26.40
3037;DHT22;1528;52.550;13.408;2023-04-25T05:43:18;10.20;26.00
3037;DHT22;1528;52.550;13.408;2023-04-25T05:46:03;10.20;25.90
3037;DHT22;1528;52.550;13.408;2023-04-25T05:48:51;10.20;25.80
3037;DHT22;1528;52.550;13.408;2023-04-25T05:51:37;10.30;25.60
3037;DHT22;1528;52.550;13.408;2023-04-25T05:54:22;10.40;25.80
3037;DHT22;1528;52.550;13.408;2023-04-25T05:57:08;10.30;25.80
3037;DHT22;1528;52.550;13.408;2023-04-25T05:59:54;10.20;26.30
3037;DHT22;1528;52.550;13.408;2023-04-25T06:02:39;10.00;26.30
3037;DHT22;1528;52.550;13.408;2023-04-25T06:05:27;9.90;27.20
3037;DHT22;1528;52.550;13.408;2023-04-25T06:08:12;10.10;26.30
3037;DHT22;1528;52.550;13.408;2023-04-25T06:10:58;10.00;26.70
3037;DHT22;1528;52.550;13.408;2023-04-25T06:13:43;10.10;26.70
3037;DHT22;1528;52.550;13.408;2023-04-25T06:16:29;9.90;28.00
3037;DHT22;1528;52.550;13.408;2023-04-25T06:19:15;10.10;26.90
3037;DHT22;1528;52.550;13.408;2023-04-25T06:22:02;10.20;26.70
3037;DHT22;1528;52.550;13.408;2023-04-25T06:24:47;10.30;27.20
3037;DHT22;1528;52.550;13.408;2023-04-25T06:27:33;10.30;26.80
3037;DHT22;1528;52.550;13.408;2023-04-25T06:30:18;10.30;27.00
3037;DHT22;1528;52.550;13.408;2023-04-25T06:33:07;10.50;26.50
3037;DHT22;1528;52.550;13.408;2023-04-25T06:35:53;10.40;26.60
3037;DHT22;1528;52.550;13.408;2023-04-25T06:38:40;10.20;27.00
3037;DHT22;1528;52.550;13.408;2023-04-25T06:41:26;10.30;26.80
3037;DHT22;1528;52.550;13.408;2023-04-25T06:44:12;10.30;27.10
3037;DHT22;1528;52.550;13.408;2023-04-25T06:46:57;10.40;27.00
3037;DHT22;1528;52.550;13.408;2023-04-25T06:49:43;10.40;26.80
3037;DHT22;1528;52.550;13.408;2023-04-25T06:52:28;10.30;26.80
3037;DHT22;1528;52.550;13.408;2023-04-25T06:55:16;10.40;27.10
3037;DHT22;1528;52.550;13.408;2023-04-25T06:58:01;10.30;27.10
3037;DHT22;1528;52.550;13.408;2023-04-25T07:00:47;10.30;27.30
3037;DHT22;1528;52.550;13.408;2023-04-25T07:03:33;10.30;27.40
3037;DHT22;1528;52.550;13.408;2023-04-25T07:06:18;10.20;27.60
3037;DHT22;1528;52.550;13.408;2023-04-25T07:09:04;10.10;27.80
3037;DHT22;1528;52.550;13.408;2023-04-25T07:11:51;10.10;27.90
3037;DHT22;1528;52.550;13.408;2023-04-25T07:14:37;10.20;27.90
3037;DHT22;1528;52.550;13.408;2023-04-25T07:17:23;10.20;27.80
3037;DHT22;1528;52.550;13.408;2023-04-25T07:20:09;9.90;29.40
3037;DHT22;1528;52.550;13.408;2023-04-25T07:22:54;10.00;28.50
3037;DHT22;1528;52.550;13.408;2023-04-25T07:25:43;10.10;28.40
3037;DHT22;1528;52.550;13.408;2023-04-25T07:28:30;10.20;27.60
3037;DHT22;1528;52.550;13.408;2023-04-25T07:31:16;10.20;27.40
3037;DHT22;1528;52.550;13.408;2023-04-25T07:34:02;10.00;28.30
3037;DHT22;1528;52.550;13.408;2023-04-25T07:36:48;10.20;27.20
3037;DHT22;1528;52.550;13.408;2023-04-25T07:39:33;10.20;27.40
3037;DHT22;1528;52.550;13.408;2023-04-25T07:42:19;10.30;26.70
3037;DHT22;1528;52.550;13.408;2023-04-25T07:45:07;10.40;26.00
3037;DHT22;1528;52.550;13.408;2023-04-25T07:47:53;10.50;25.90
3037;DHT22;1528;52.550;13.408;2023-04-25T07:50:39;10.60;25.50
3037;DHT22;1528;52.550;13.408;2023-04-25T07:53:25;10.60;24.30
3037;DHT22;1528;52.550;13.408;2023-04-25T07:56:10;10.60;24.60
3037;DHT22;1528;52.550;13.408;2023-04-25T07:58:56;10.50;24.90
3037;DHT22;1528;52.550;13.408;2023-04-25T08:01:44;10.40;24.70
3037;DHT22;1528;52.550;13.408;2023-04-25T08:04:29;10.40;24.30
3037;DHT22;1528;52.550;13.408;2023-04-25T08:07:15;10.40;23.80
3037;DHT22;1528;52.550;13.408;2023-04-25T08:10:01;10.30;23.90
3037;DHT22;1528;52.550;13.408;2023-04-25T08:12:46;10.60;22.80
3037;DHT22;1528;52.550;13.408;2023-04-25T08:15:32;10.60;22.40
3037;DHT22;1528;52.550;13.408;2023-04-25T08:18:19;10.70;22.10
3037;DHT22;1528;52.550;13.408;2023-04-25T08:21:05;10.70;22.30
3037;DHT22;1528;52.550;13.408;2023-04-25T08:23:50;10.70;22.30
3037;DHT22;1528;52.550;13.408;2023-04-25T08:26:36;10.80;23.90
3037;DHT22;1528;52.550;13.408;2023-04-25T08:29:30;11.10;22.20
3037;DHT22;1528;52.550;13.408;2023-04-25T08:32:20;11.30;21.70
3037;DHT22;1528;52.550;13.408;2023-04-25T08:35:08;11.20;21.10
3037;DHT22;1528;52.550;13.408;2023-04-25T08:37:53;11.10;21.20
3037;DHT22;1528;52.550;13.408;2023-04-25T08:40:39;11.20;21.00
3037;DHT22;1528;52.550;13.408;2023-04-25T08:43:25;11.30;19.40
3037;DHT22;1528;52.550;13.408;2023-04-25T08:46:11;11.50;18.00
3037;DHT22;1528;52.550;13.408;2023-04-25T08:49:00;11.30;18.20
3037;DHT22;1528;52.550;13.408;2023-04-25T08:51:47;11.10;18.60
3037;DHT22;1528;52.550;13.408;2023-04-25T08:54:36;11.10;18.10
3037;DHT22;1528;52.550;13.408;2023-04-25T08:57:22;11.40;18.20
3037;DHT22;1528;52.550;13.408;2023-04-25T09:00:09;11.50;16.80
3037;DHT22;1528;52.550;13.408;2023-04-25T09:02:55;11.70;15.90
3037;DHT22;1528;52.550;13.408;2023-04-25T09:05:42;11.60;15.80
3037;DHT22;1528;52.550;13.408;2023-04-25T09:08:28;11.70;15.90
3037;DHT22;1528;52.550;13.408;2023-04-25T09:11:14;11.60;16.20
3037;DHT22;1528;52.550;13.408;2023-04-25T09:14:14;11.80;15.00
3037;DHT22;1528;52.550;13.408;2023-04-25T09:17:01;12.10;12.80
3037;DHT22;1528;52.550;13.408;2023-04-25T09:19:47;11.50;13.30
3037;DHT22;1528;52.550;13.408;2023-04-25T09:22:36;11.90;14.20
3037;DHT22;1528;52.550;13.408;2023-04-25T09:25:24;12.40;12.90
3037;DHT22;1528;52.550;13.408;2023-04-25T09:28:10;12.70;12.30
3037;DHT22;1528;52.550;13.408;2023-04-25T09:30:56;12.70;11.90
3037;DHT22;1528;52.550;13.408;2023-04-25T09:33:42;12.90;11.30
3037;DHT22;1528;52.550;13.408;2023-04-25T09:36:30;12.50;11.80
3037;DHT22;1528;52.550;13.408;2023-04-25T09:39:15;12.90;11.40
3037;DHT22;1528;52.550;13.408;2023-04-25T09:42:04;12.80;11.70
3037;DHT22;1528;52.550;13.408;2023-04-25T09:44:51;12.60;10.60
3037;DHT22;1528;52.550;13.408;2023-04-25T09:47:37;12.50;10.00
3037;DHT22;1528;52.550;13.408;2023-04-25T09:50:23;12.40;9.20
3037;DHT22;1528;52.550;13.408;2023-04-25T09:53:08;12.20;9.20
3037;DHT22;1528;52.550;13.408;2023-04-25T09:55:55;12.30;9.30
3037;DHT22;1528;52.550;13.408;2023-04-25T09:58:43;12.70;8.70
3037;DHT22;1528;52.550;13.408;2023-04-25T10:01:29;12.50;8.10
3037;DHT22;1528;52.550;13.408;2023-04-25T10:04:19;12.40;8.60
3037;DHT22;1528;52.550;13.408;2023-04-25T10:07:09;12.80;8.40
3037;DHT22;1528;52.550;13.408;2023-04-25T10:09:58;12.70;8.00
3037;DHT22;1528;52.550;13.408;2023-04-25T10:12:45;12.80;7.60
3037;DHT22;1528;52.550;13.408;2023-04-25T10:15:34;12.80;7.60
3037;DHT22;1528;52.550;13.408;2023-04-25T10:18:21;12.80;7.90
3037;DHT22;1528;52.550;13.408;2023-04-25T10:21:07;12.90;7.70
3037;DHT22;1528;52.550;13.408;2023-04-25T10:23:56;13.10;6.90
3037;DHT22;1528;52.550;13.408;2023-04-25T10:26:42;12.90;6.80
3037;DHT22;1528;52.550;13.408;2023-04-25T10:29:28;12.80;7.30
3037;DHT22;1528;52.550;13.408;2023-04-25T10:32:15;12.70;7.30
3037;DHT22;1528;52.550;13.408;2023-04-25T10:35:11;12.60;7.60
3037;DHT22;1528;52.550;13.408;2023-04-25T10:38:02;12.50;7.60
3037;DHT22;1528;52.550;13.408;2023-04-25T10:41:03;12.40;7.20
3037;DHT22;1528;52.550;13.408;2023-04-25T10:43:50;12.40;7.90
3037;DHT22;1528;52.550;13.408;2023-04-25T10:46:44;12.80;7.20
3037;DHT22;1528;52.550;13.408;2023-04-25T10:49:36;13.10;7.10
3037;DHT22;1528;52.550;13.408;2023-04-25T10:52:26;12.80;6.40
3037;DHT22;1528;52.550;13.408;2023-04-25T10:55:13;12.90;6.20
3037;DHT22;1528;52.550;13.408;2023-04-25T10:58:00;12.50;5.50
3037;DHT22;1528;52.550;13.408;2023-04-25T11:00:46;12.70;5.00
3037;DHT22;1528;52.550;13.408;2023-04-25T11:03:31;12.80;5.20
3037;DHT22;1528;52.550;13.408;2023-04-25T11:06:23;12.90;5.00
3037;DHT22;1528;52.550;13.408;2023-04-25T11:09:13;13.20;5.00
3037;DHT22;1528;52.550;13.408;2023-04-25T11:11:59;13.10;5.10
3037;DHT22;1528;52.550;13.408;2023-04-25T11:14:45;12.70;5.90
3037;DHT22;1528;52.550;13.408;2023-04-25T11:17:31;12.40;6.30
3037;DHT22;1528;52.550;13.408;2023-04-25T11:20:17;11.70;7.20
3037;DHT22;1528;52.550;13.408;2023-04-25T11:23:04;11.50;8.00
3037;DHT22;1528;52.550;13.408;2023-04-25T11:25:50;11.40;7.30
3037;DHT22;1528;52.550;13.408;2023-04-25T11:28:36;11.30;7.50
3037;DHT22;1528;52.550;13.408;2023-04-25T11:31:50;11.30;8.00
3037;DHT22;1528;52.550;13.408;2023-04-25T11:34:50;11.30;7.20
3037;DHT22;1528;52.550;13.408;2023-04-25T11:37:35;11.30;6.60
3037;DHT22;1528;52.550;13.408;2023-04-25T11:40:22;11.50;6.60
3037;DHT22;1528;52.550;13.408;2023-04-25T11:43:09;11.80;6.10
3037;DHT22;1528;52.550;13.408;2023-04-25T11:45:54;12.00;6.00
3037;DHT22;1528;52.550;13.408;2023-04-25T11:48:40;12.30;5.30
3037;DHT22;1528;52.550;13.408;2023-04-25T11:51:26;12.60;5.00
3037;DHT22;1528;52.550;13.408;2023-04-25T11:54:12;12.50;4.50
3037;DHT22;1528;52.550;13.408;2023-04-25T11:56:59;12.60;4.60
3037;DHT22;1528;52.550;13.408;2023-04-25T11:59:45;12.50;4.90
3037;DHT22;1528;52.550;13.408;2023-04-25T12:02:31;12.50;5.00
3037;DHT22;1528;52.550;13.408;2023-04-25T12:05:16;12.70;5.10
3037;DHT22;1528;52.550;13.408;2023-04-25T12:08:12;12.80;4.90
3037;DHT22;1528;52.550;13.408;2023-04-25T12:10:58;13.20;4.70
3037;DHT22;1528;52.550;13.408;2023-04-25T12:13:45;13.10;4.50
3037;DHT22;1528;52.550;13.408;2023-04-25T12:16:40;12.70;5.00
3037;DHT22;1528;52.550;13.408;2023-04-25T12:19:32;12.50;5.20
3037;DHT22;1528;52.550;13.408;2023-04-25T12:22:22;12.20;5.80
3037;DHT22;1528;52.550;13.408;2023-04-25T12:25:09;12.10;6.10
3037;DHT22;1528;52.550;13.408;2023-04-25T12:27:54;12.30;5.90
3037;DHT22;1528;52.550;13.408;2023-04-25T12:30:55;12.40;5.20
3037;DHT22;1528;52.550;13.408;2023-04-25T12:33:41;12.70;4.30
3037;DHT22;1528;52.550;13.408;2023-04-25T12:36:32;13.00;3.50
3037;DHT22;1528;52.550;13.408;2023-04-25T12:39:18;13.30;2.90
3037;DHT22;1528;52.550;13.408;2023-04-25T12:42:04;13.00;2.90
3037;DHT22;1528;52.550;13.408;2023-04-25T12:44:52;12.70;3.20
3037;DHT22;1528;52.550;13.408;2023-04-25T12:47:39;12.50;4.00
3037;DHT22;1528;52.550;13.408;2023-04-25T12:50:24;12.50;4.20
3037;DHT22;1528;52.550;13.408;2023-04-25T12:53:11;12.50;3.70
3037;DHT22;1528;52.550;13.408;2023-04-25T12:55:56;12.40;4.50
3037;DHT22;1528;52.550;13.408;2023-04-25T12:58:42;12.50;4.70
3037;DHT22;1528;52.550;13.408;2023-04-25T13:01:29;12.70;4.50
3037;DHT22;1528;52.550;13.408;2023-04-25T13:04:16;12.80;3.60
3037;DHT22;1528;52.550;13.408;2023-04-25T13:07:02;12.70;1.90
3037;DHT22;1528;52.550;13.408;2023-04-25T13:09:47;12.80;1.70
3037;DHT22;1528;52.550;13.408;2023-04-25T13:12:33;13.30;1.40
3037;DHT22;1528;52.550;13.408;2023-04-25T13:15:19;13.70;1.30
3037;DHT22;1528;52.550;13.408;2023-04-25T13:18:05;13.70;1.20
3037;DHT22;1528;52.550;13.408;2023-04-25T13:20:52;13.70;2.30
3037;DHT22;1528;52.550;13.408;2023-04-25T13:23:38;13.80;2.00
3037;DHT22;1528;52.550;13.408;2023-04-25T13:26:25;14.00;2.30
3037;DHT22;1528;52.550;13.408;2023-04-25T13:29:10;13.70;1.70
3037;DHT22;1528;52.550;13.408;2023-04-25T13:31:56;13.50;2.60
3037;DHT22;1528;52.550;13.408;2023-04-25T13:34:42;13.30;3.20
3037;DHT22;1528;52.550;13.408;2023-04-25T13:37:29;13.30;3.70
3037;DHT22;1528;52.550;13.408;2023-04-25T13:40:16;12.80;4.20
3037;DHT22;1528;52.550;13.408;2023-04-25T13:43:02;12.60;5.00
3037;DHT22;1528;52.550;13.408;2023-04-25T13:45:47;12.60;5.40
3037;DHT22;1528;52.550;13.408;2023-04-25T13:48:33;12.70;5.40
3037;DHT22;1528;52.550;13.408;2023-04-25T13:51:19;12.60;6.10
3037;DHT22;1528;52.550;13.408;2023-04-25T13:54:06;12.60;6.00
3037;DHT22;1528;52.550;13.408;2023-04-25T13:56:52;12.70;6.10
3037;DHT22;1528;52.550;13.408;2023-04-25T13:59:42;13.00;5.80
3037;DHT22;1528;52.550;13.408;2023-04-25T14:02:28;13.70;4.40
3037;DHT22;1528;52.550;13.408;2023-04-25T14:05:14;14.20;3.90
3037;DHT22;1528;52.550;13.408;2023-04-25T14:08:00;14.20;3.30
3037;DHT22;1528;52.550;13.408;2023-04-25T14:10:47;13.70;4.10
3037;DHT22;1528;52.550;13.408;2023-04-25T14:13:32;13.30;4.30
3037;DHT22;1528;52.550;13.408;2023-04-25T14:16:18;13.00;5.00
3037;DHT22;1528;52.550;13.408;2023-04-25T14:19:04;12.70;5.20
3037;DHT22;1528;52.550;13.408;2023-04-25T14:21:50;12.40;5.50
3037;DHT22;1528;52.550;13.408;2023-04-25T14:24:36;12.20;5.90
3037;DHT22;1528;52.550;13.408;2023-04-25T14:27:23;12.30;6.20
3037;DHT22;1528;52.550;13.408;2023-04-25T14:30:10;12.10;5.80
3037;DHT22;1528;52.550;13.408;2023-04-25T14:32:56;12.30;5.40
3037;DHT22;1528;52.550;13.408;2023-04-25T14:35:41;12.30;5.30
3037;DHT22;1528;52.550;13.408;2023-04-25T14:38:27;12.40;5.50
3037;DHT22;1528;52.550;13.408;2023-04-25T14:41:13;13.20;4.50
3037;DHT22;1528;52.550;13.408;2023-04-25T14:44:00;13.40;4.40
3037;DHT22;1528;52.550;13.408;2023-04-25T14:46:45;13.50;4.30
3037;DHT22;1528;52.550;13.408;2023-04-25T14:49:32;13.60;4.80
3037;DHT22;1528;52.550;13.408;2023-04-25T14:52:17;13.60;5.00
3037;DHT22;1528;52.550;13.408;2023-04-25T14:55:04;13.10;5.50
3037;DHT22;1528;52.550;13.408;2023-04-25T14:57:50;12.50;6.60
3037;DHT22;1528;52.550;13.408;2023-04-25T15:00:37;12.00;7.70
3037;DHT22;1528;52.550;13.408;2023-04-25T15:03:23;11.90;8.50
3037;DHT22;1528;52.550;13.408;2023-04-25T15:06:08;11.70;11.00
3037;DHT22;1528;52.550;13.408;2023-04-25T15:08:54;11.40;11.30
3037;DHT22;1528;52.550;13.408;2023-04-25T15:11:41;11.50;11.10
3037;DHT22;1528;52.550;13.408;2023-04-25T15:14:27;11.50;10.60
3037;DHT22;1528;52.550;13.408;2023-04-25T15:17:14;11.40;9.70
3037;DHT22;1528;52.550;13.408;2023-04-25T15:19:59;11.50;9.90
3037;DHT22;1528;52.550;13.408;2023-04-25T15:22:45;11.40;10.60
3037;DHT22;1528;52.550;13.408;2023-04-25T15:25:32;11.70;9.80
3037;DHT22;1528;52.550;13.408;2023-04-25T15:28:18;11.70;8.60
3037;DHT22;1528;52.550;13.408;2023-04-25T15:31:05;12.00;8.10
3037;DHT22;1528;52.550;13.408;2023-04-25T15:33:52;12.50;7.40
3037;DHT22;1528;52.550;13.408;2023-04-25T15:36:37;12.90;5.80
3037;DHT22;1528;52.550;13.408;2023-04-25T15:39:24;13.10;5.10
3037;DHT22;1528;52.550;13.408;2023-04-25T15:42:09;13.60;5.00
3037;DHT22;1528;52.550;13.408;2023-04-25T15:44:55;13.70;5.00
3037;DHT22;1528;52.550;13.408;2023-04-25T15:47:41;14.30;3.80
3037;DHT22;1528;52.550;13.408;2023-04-25T15:50:28;14.20;3.50
3037;DHT22;1528;52.550;13.408;2023-04-25T15:53:13;13.80;4.30
3037;DHT22;1528;52.550;13.408;2023-04-25T15:55:59;13.40;4.80
3037;DHT22;1528;52.550;13.408;2023-04-25T15:58:45;13.10;5.30
3037;DHT22;1528;52.550;13.408;2023-04-25T16:01:31;13.00;5.80
3037;DHT22;1528;52.550;13.408;2023-04-25T16:04:16;12.90;6.20
3037;DHT22;1528;52.550;13.408;2023-04-25T16:07:04;12.90;6.20
3037;DHT22;1528;52.550;13.408;2023-04-25T16:09:50;12.70;6.20
3037;DHT22;1528;52.550;13.408;2023-04-25T16:12:36;12.20;6.00
3037;DHT22;1528;52.550;13.408;2023-04-25T16:15:21;12.10;6.10
3037;DHT22;1528;52.550;13.408;2023-04-25T16:18:07;12.00;5.90
3037;DHT22;1528;52.550;13.408;2023-04-25T16:20:53;12.00;6.00
3037;DHT22;1528;52.550;13.408;2023-04-25T16:23:40;12.00;5.90
3037;DHT22;1528;52.550;13.408;2023-04-25T16:26:25;12.00;5.50
3037;DHT22;1528;52.550;13.408;2023-04-25T16:29:11;11.80;5.20
3037;DHT22;1528;52.550;13.408;2023-04-25T16:31:57;11.70;5.20
3037;DHT22;1528;52.550;13.408;2023-04-25T16:34:43;11.50;4.50
3037;DHT22;1528;52.550;13.408;2023-04-25T16:37:29;11.50;4.30
3037;DHT22;1528;52.550;13.408;2023-04-25T16:40:16;11.30;4.40
3037;DHT22;1528;52.550;13.408;2023-04-25T16:43:02;11.40;4.70
3037;DHT22;1528;52.550;13.408;2023-04-25T16:45:47;11.40;5.10
3037;DHT22;1528;52.550;13.408;2023-04-25T16:48:33;11.20;5.30
3037;DHT22;1528;52.550;13.408;2023-04-25T16:51:19;11.40;6.10
3037;DHT22;1528;52.550;13.408;2023-04-25T16:54:06;11.40;5.60
3037;DHT22;1528;52.550;13.408;2023-04-25T16:56:53;11.50;5.60
3037;DHT22;1528;52.550;13.408;2023-04-25T16:59:38;11.70;5.50
3037;DHT22;1528;52.550;13.408;2023-04-25T17:02:24;11.50;5.60
3037;DHT22;1528;52.550;13.408;2023-04-25T17:05:09;11.70;6.20
3037;DHT22;1528;52.550;13.408;2023-04-25T17:07:55;11.40;6.20
3037;DHT22;1528;52.550;13.408;2023-04-25T17:10:41;11.40;6.40
3037;DHT22;1528;52.550;13.408;2023-04-25T17:13:28;11.20;6.60
3037;DHT22;1528;52.550;13.408;2023-04-25T17:16:13;11.30;7.10
3037;DHT22;1528;52.550;13.408;2023-04-25T17:19:02;11.30;7.20
3037;DHT22;1528;52.550;13.408;2023-04-25T17:21:49;11.50;7.60
3037;DHT22;1528;52.550;13.408;2023-04-25T17:24:34;11.50;7.80
3037;DHT22;1528;52.550;13.408;2023-04-25T17:27:20;11.30;7.70
3037;DHT22;1528;52.550;13.408;2023-04-25T17:30:08;11.40;8.70
3037;DHT22;1528;52.550;13.408;2023-04-25T17:32:54;11.40;8.30
3037;DHT22;1528;52.550;13.408;2023-04-25T17:35:40;11.40;8.20
3037;DHT22;1528;52.550;13.408;2023-04-25T17:38:26;11.50;8.20
3037;DHT22;1528;52.550;13.408;2023-04-25T17:41:11;11.40;8.60
3037;DHT22;1528;52.550;13.408;2023-04-25T17:43:57;11.40;8.50
3037;DHT22;1528;52.550;13.408;2023-04-25T17:46:44;11.20;8.30
3037;DHT22;1528;52.550;13.408;2023-04-25T17:49:31;11.10;9.20
3037;DHT22;1528;52.550;13.408;2023-04-25T17:52:17;11.10;9.20
3037;DHT22;1528;52.550;13.408;2023-04-25T17:55:03;11.10;9.30
3037;DHT22;1528;52.550;13.408;2023-04-25T17:57:49;11.00;9.50
3037;DHT22;1528;52.550;13.408;2023-04-25T18:00:35;10.90;9.60